Nederland, Colorado
Current Conditions -  °F | °C
As of 7:56 PM on Monday 20 Oct 2014 (Local Time) from KBDU Reporting Station
Clear Clear  
Wind Chill: 64°   Ceiling: Unl
Heat Index: 64°   Visibility: 10mi
Dew Point: 36°   Wind: 7mph
Humidity: 34%   Direction: 210°SSW
Pressure: 30.04"   Gusts: NA
Location:  39.96°N, 105.51°W
Report Text: KBDU 210156Z AUTO 21006KT 10SM CLR 18/02 A3004 RMK AO2
Loading
Personal Weather Stations






























Interactive Weather Map
Tropical Storm Tracking
New forecast layout! Learn more

10-Day Weather Forecast

Advertisements
Track Severe Weather on mobile